Available data for KAFO from the past hour
Metar
KAFO 260835Z AUTO 00000KT 10SM CLR M03/M07 A3033 RMK AO2

08:35 UTC

Wind: 0° 0kt

Visibility: 10 SM

Sky:

Temp: -3 deg C / 26.6 deg F

Dewpoint: -7 deg C / 19.4 deg F

Pressure: 30.33 inHg

The next Board Meeting is: June , 2018           The next Annual Meeting is: Jul 2018

IMG_1868

Please help us keep our taxiways free of debris. The taxiways are only for aircraft.